Elmswell, United Kingdom
Current Conditions -  °F | °C
As of 9:50 AM on Saturday 25 Oct 2014 (Local Time) from EGUW Reporting Station
Clear Clear  
Wind Chill:   Ceiling: Unl
Heat Index:   Visibility: 6mi
Dew Point:   Wind: 6mph
Humidity: 93%   Direction: 230°SW
Pressure: 30.03"   Gusts: NA
Location:  52.24°N, 0.91°E
Report Text: EGUW 250850Z AUTO 23005KT 9999 NCD 09/08 Q1017
Loading
Personal Weather Stations






























Interactive Weather Map
Tropical Storm Tracking
New forecast layout! Learn more

10-Day Weather Forecast

Advertisements
Track Severe Weather on mobile